Time;durP1;ratioP1;P1;durP2;ratioP2;P2;SDS_P1;SDS_P2;PMS_P1;PMS_P2;Temp;Humidity;BMP_temperature;BMP_pressure;BME280_temperature;BME280_humidity;BME280_pressure;Samples;Min_cycle;Max_cycle;Signal;HPM_P1;HPM_P2
2021/05/08 00:00:44;;;;;;;5.63;3.43;;;9.90;99.90;;;;;;5116816;28;20245;-67
2021/05/08 00:03:10;;;;;;;5.37;4.20;;;9.90;99.90;;;;;;5116586;28;20187;-67
2021/05/08 00:05:36;;;;;;;5.27;3.50;;;9.90;99.90;;;;;;5098040;28;20184;-67
2021/05/08 00:08:01;;;;;;;5.13;4.53;;;9.80;99.90;;;;;;5116362;28;20649;-68
2021/05/08 00:10:27;;;;;;;4.63;3.77;;;9.80;99.90;;;;;;5116409;28;20519;-66
2021/05/08 00:12:53;;;;;;;6.13;4.43;;;9.90;99.90;;;;;;5116330;28;20618;-67
2021/05/08 00:15:19;;;;;;;4.50;4.10;;;9.80;99.90;;;;;;5116358;28;20203;-66
2021/05/08 00:17:45;;;;;;;5.15;4.10;;;9.70;99.90;;;;;;5115964;28;20464;-66
2021/05/08 00:20:13;;;;;;;4.70;4.10;;;9.70;99.90;;;;;;5116258;28;20666;-65
2021/05/08 00:22:39;;;;;;;4.53;3.97;;;9.60;99.90;;;;;;5116013;28;20183;-67
2021/05/08 00:25:06;;;;;;;7.50;4.50;;;9.60;99.90;;;;;;5116132;28;20519;-66
2021/05/08 00:27:33;;;;;;;5.60;4.50;;;9.60;99.90;;;;;;5114678;28;20445;-66
2021/05/08 00:29:58;;;;;;;5.00;3.90;;;9.50;99.90;;;;;;5115965;28;20625;-66
2021/05/08 00:32:24;;;;;;;5.60;4.17;;;9.50;99.90;;;;;;5115933;28;20199;-66
2021/05/08 00:34:49;;;;;;;5.00;4.40;;;9.50;99.90;;;;;;5115844;28;20548;-67
2021/05/08 00:37:15;;;;;;;6.60;4.77;;;9.40;99.90;;;;;;5115886;28;20195;-67
2021/05/08 00:39:41;;;;;;;6.67;4.60;;;9.40;99.90;;;;;;5115678;28;20211;-67
2021/05/08 00:42:06;;;;;;;4.80;3.53;;;9.40;99.90;;;;;;5097500;28;20409;-68
2021/05/08 00:44:32;;;;;;;4.47;3.53;;;9.30;99.90;;;;;;5115676;28;20568;-67
2021/05/08 00:46:58;;;;;;;6.90;4.43;;;9.40;99.90;;;;;;5115526;28;20176;-67
2021/05/08 00:49:27;;;;;;;4.63;3.90;;;9.30;99.90;;;;;;5115389;28;20198;-67
2021/05/08 00:51:52;;;;;;;5.65;3.95;;;9.20;99.90;;;;;;5116049;28;20956;-67
2021/05/08 00:54:18;;;;;;;5.03;3.90;;;9.10;99.90;;;;;;5097150;28;20199;-67
2021/05/08 00:56:44;;;;;;;4.70;3.93;;;9.10;99.90;;;;;;5115108;28;20318;-68
2021/05/08 00:59:09;;;;;;;4.57;4.13;;;9.10;99.90;;;;;;5115305;28;20677;-66
2021/05/08 01:01:35;;;;;;;8.80;5.27;;;9.00;99.90;;;;;;5115776;28;20187;-67
2021/05/08 01:04:01;;;;;;;5.30;4.10;;;9.00;99.90;;;;;;5115258;28;20676;-67
2021/05/08 01:06:26;;;;;;;4.77;3.90;;;9.00;99.90;;;;;;5097190;28;20176;-66
2021/05/08 01:08:52;;;;;;;5.37;4.60;;;9.00;99.90;;;;;;5115130;28;20226;-67
2021/05/08 01:11:18;;;;;;;4.40;4.00;;;8.90;99.90;;;;;;5097040;28;20180;-66
2021/05/08 01:13:44;;;;;;;5.57;4.53;;;8.90;99.90;;;;;;5114983;28;20900;-66
2021/05/08 01:16:09;;;;;;;5.97;4.93;;;8.80;99.90;;;;;;5115377;28;20204;-66
2021/05/08 01:18:35;;;;;;;4.50;3.80;;;8.70;99.90;;;;;;5114879;28;20298;-68
2021/05/08 01:21:01;;;;;;;7.33;4.33;;;8.70;99.90;;;;;;5115308;28;20180;-67
2021/05/08 01:23:27;;;;;;;5.30;4.63;;;8.50;99.90;;;;;;5114908;28;20436;-67
2021/05/08 01:25:52;;;;;;;5.97;4.10;;;8.50;99.90;;;;;;5114786;28;20419;-66
2021/05/08 01:28:18;;;;;;;6.97;4.43;;;8.50;99.90;;;;;;5114806;28;20431;-66
2021/05/08 01:30:44;;;;;;;5.73;4.60;;;8.40;99.90;;;;;;5115085;28;20617;-66
2021/05/08 01:33:09;;;;;;;5.43;4.67;;;8.40;99.90;;;;;;5114674;28;20252;-67
2021/05/08 01:35:36;;;;;;;7.87;5.27;;;8.40;99.90;;;;;;5096549;28;20538;-67
2021/05/08 01:38:02;;;;;;;8.82;4.97;;;8.40;99.90;;;;;;5114507;28;20621;-66
2021/05/08 01:40:36;;;;;;;5.03;4.35;;;8.40;99.90;;;;;;5096597;28;20199;-67
2021/05/08 01:43:01;;;;;;;5.93;5.05;;;8.50;99.90;;;;;;5096164;28;20248;-68
2021/05/08 01:45:28;;;;;;;5.63;4.60;;;8.40;99.90;;;;;;5114758;28;20644;-67
2021/05/08 01:47:54;;;;;;;6.60;4.97;;;8.40;99.90;;;;;;5114375;28;20199;-67
2021/05/08 01:50:25;;;;;;;6.40;5.03;;;8.40;99.90;;;;;;5114535;28;20218;-66
2021/05/08 01:52:51;;;;;;;7.68;4.97;;;8.40;99.90;;;;;;5114457;28;20684;-65
2021/05/08 01:55:22;;;;;;;7.27;4.57;;;8.50;99.90;;;;;;5114430;28;20175;-67
2021/05/08 01:57:53;;;;;;;4.85;4.35;;;8.50;99.90;;;;;;5114230;28;20806;-66
2021/05/08 02:00:41;;;;;;;5.80;4.15;;;8.50;99.90;;;;;;5113903;28;20503;-68
2021/05/08 02:03:07;;;;;;;6.70;4.95;;;8.40;99.90;;;;;;5114391;28;20192;-67
2021/05/08 02:05:35;;;;;;;4.93;4.43;;;8.40;99.90;;;;;;5114202;28;20179;-66
2021/05/08 02:08:06;;;;;;;6.10;5.00;;;8.30;99.90;;;;;;5114405;28;20187;-67
2021/05/08 02:10:37;;;;;;;6.38;4.93;;;8.20;99.90;;;;;;5114615;28;20180;-68
2021/05/08 02:13:06;;;;;;;5.55;4.50;;;8.20;99.90;;;;;;5114208;28;20188;-66
2021/05/08 02:15:33;;;;;;;5.78;4.82;;;8.10;99.90;;;;;;5114386;28;20176;-67
2021/05/08 02:17:59;;;;;;;6.65;5.30;;;8.10;99.90;;;;;;5113972;28;20215;-67
2021/05/08 02:20:27;;;;;;;9.48;5.32;;;8.20;99.90;;;;;;5114274;28;20634;-67
2021/05/08 02:22:58;;;;;;;7.63;5.65;;;8.20;99.90;;;;;;5095716;28;20744;-67
2021/05/08 02:25:24;;;;;;;10.35;5.60;;;8.10;99.90;;;;;;5095911;28;20176;-68
2021/05/08 02:27:50;;;;;;;10.00;5.20;;;8.00;99.90;;;;;;5095632;28;20612;-66
2021/05/08 02:30:24;;;;;;;7.18;6.20;;;7.90;99.90;;;;;;5114112;28;20233;-66
2021/05/08 02:32:51;;;;;;;7.30;5.00;;;7.90;99.90;;;;;;5095641;28;20624;-67
2021/05/08 02:35:18;;;;;;;7.47;5.55;;;7.90;99.90;;;;;;5095704;28;20236;-67
2021/05/08 02:37:44;;;;;;;5.70;4.07;;;7.90;99.90;;;;;;5113879;28;20740;-68
2021/05/08 02:40:19;;;;;;;10.07;5.00;;;7.80;99.90;;;;;;5113998;28;20230;-65
2021/05/08 02:42:45;;;;;;;7.25;5.35;;;7.90;99.90;;;;;;5113873;28;20541;-67
2021/05/08 02:45:11;;;;;;;8.27;4.85;;;7.90;99.90;;;;;;5095653;28;20191;-67
2021/05/08 02:47:38;;;;;;;7.88;5.57;;;7.90;99.90;;;;;;5113834;28;20192;-68
2021/05/08 02:50:04;;;;;;;6.85;5.82;;;7.90;99.90;;;;;;5095536;28;20184;-66
2021/05/08 02:52:30;;;;;;;8.38;5.65;;;7.80;99.90;;;;;;5113814;28;20172;-66
2021/05/08 02:54:55;;;;;;;12.27;5.90;;;7.90;99.90;;;;;;5113786;28;20276;-67
2021/05/08 02:57:21;;;;;;;8.23;5.00;;;7.90;99.90;;;;;;5113506;28;20231;-67
2021/05/08 02:59:46;;;;;;;7.30;5.57;;;7.90;99.90;;;;;;5113724;28;20179;-65
2021/05/08 03:02:12;;;;;;;5.33;4.47;;;7.90;99.90;;;;;;5113812;28;20251;-66
2021/05/08 03:04:37;;;;;;;5.53;4.67;;;7.80;99.90;;;;;;5095270;28;20249;-67
2021/05/08 03:07:04;;;;;;;5.67;4.80;;;7.70;99.90;;;;;;5113669;28;20206;-67
2021/05/08 03:09:31;;;;;;;6.10;5.40;;;7.70;99.90;;;;;;5095277;28;20256;-67
2021/05/08 03:11:59;;;;;;;7.72;5.20;;;7.80;99.90;;;;;;5116263;28;20209;-67
2021/05/08 03:14:24;;;;;;;5.85;5.25;;;7.80;99.90;;;;;;5117420;28;20188;-68
2021/05/08 03:16:50;;;;;;;6.20;4.60;;;7.80;99.90;;;;;;5117345;28;20537;-65
2021/05/08 03:19:16;;;;;;;5.50;4.40;;;7.70;99.90;;;;;;5117175;28;20207;-67
2021/05/08 03:21:42;;;;;;;6.47;5.07;;;7.80;99.90;;;;;;5117803;28;20171;-65
2021/05/08 03:24:08;;;;;;;7.50;5.05;;;7.80;99.90;;;;;;5117174;28;20188;-66
2021/05/08 03:26:34;;;;;;;7.88;5.45;;;7.80;99.90;;;;;;5117601;28;20215;-68
2021/05/08 03:29:00;;;;;;;7.37;5.70;;;7.80;99.90;;;;;;5117117;28;20223;-68
2021/05/08 03:31:26;;;;;;;7.63;5.10;;;7.70;99.90;;;;;;5117508;28;20640;-65
2021/05/08 03:33:52;;;;;;;6.70;5.67;;;7.50;99.90;;;;;;5116974;28;20183;-66
2021/05/08 03:36:17;;;;;;;5.53;4.87;;;7.40;99.90;;;;;;5098826;28;20423;-67
2021/05/08 03:38:43;;;;;;;5.93;4.70;;;7.40;99.90;;;;;;5116826;28;20468;-66
2021/05/08 03:41:09;;;;;;;8.40;5.70;;;7.20;99.90;;;;;;5117386;28;20416;-66
2021/05/08 03:43:36;;;;;;;6.50;5.43;;;7.20;99.90;;;;;;5116875;28;20269;-67
2021/05/08 03:46:01;;;;;;;8.02;5.55;;;7.20;99.90;;;;;;5117173;28;20239;-66
2021/05/08 03:48:28;;;;;;;6.30;5.17;;;7.20;99.90;;;;;;5116695;28;20677;-65
2021/05/08 03:50:54;;;;;;;7.28;5.72;;;7.20;99.90;;;;;;5116923;28;20190;-67
2021/05/08 03:53:21;;;;;;;8.18;5.60;;;7.30;99.90;;;;;;5116672;28;20607;-66
2021/05/08 03:55:48;;;;;;;8.63;6.00;;;7.30;99.90;;;;;;5116844;28;20184;-66
2021/05/08 03:58:14;;;;;;;6.43;5.25;;;7.40;99.90;;;;;;5116383;28;20277;-67
2021/05/08 04:00:39;;;;;;;7.27;4.93;;;7.50;99.90;;;;;;5116722;28;20184;-67
2021/05/08 04:03:05;;;;;;;6.50;4.80;;;7.60;99.90;;;;;;5116445;28;20188;-67
2021/05/08 04:05:31;;;;;;;7.40;4.97;;;7.60;99.90;;;;;;5116589;28;20447;-66
2021/05/08 04:07:57;;;;;;;5.90;5.30;;;7.60;99.90;;;;;;5116322;28;20237;-67
2021/05/08 04:10:23;;;;;;;6.77;5.53;;;7.60;99.90;;;;;;5114998;28;20188;-66
2021/05/08 04:12:48;;;;;;;5.97;5.10;;;7.60;99.90;;;;;;5116271;28;20412;-65
2021/05/08 04:15:14;;;;;;;6.40;4.93;;;7.60;99.90;;;;;;5116462;28;20187;-66
2021/05/08 04:17:39;;;;;;;6.90;5.00;;;7.70;99.90;;;;;;5097891;28;20673;-66
2021/05/08 04:20:06;;;;;;;5.90;5.03;;;7.80;99.90;;;;;;5116412;28;20625;-65
2021/05/08 04:22:31;;;;;;;8.23;5.97;;;7.80;99.90;;;;;;5115726;28;20641;-67
2021/05/08 04:24:57;;;;;;;5.73;5.17;;;7.80;99.90;;;;;;5115989;28;20236;-67
2021/05/08 04:27:22;;;;;;;6.90;5.23;;;7.80;99.90;;;;;;5116101;28;20256;-66
2021/05/08 04:29:48;;;;;;;6.80;5.53;;;7.90;99.90;;;;;;5097703;28;20174;-66
2021/05/08 04:32:13;;;;;;;7.70;5.60;;;8.00;99.90;;;;;;5097675;28;20208;-66
2021/05/08 04:34:39;;;;;;;6.07;5.23;;;7.90;99.90;;;;;;5115831;28;20641;-67
2021/05/08 04:37:05;;;;;;;8.60;6.23;;;7.90;99.90;;;;;;5115775;28;20175;-67
2021/05/08 04:39:30;;;;;;;6.97;5.47;;;8.00;99.90;;;;;;5115795;28;20187;-66
2021/05/08 04:41:56;;;;;;;7.50;5.27;;;8.10;99.90;;;;;;5116281;28;20178;-67
2021/05/08 04:44:21;;;;;;;9.83;7.43;;;8.20;99.90;;;;;;5115673;28;20230;-67
2021/05/08 04:46:49;;;;;;;9.20;5.33;;;8.20;99.90;;;;;;5116161;28;20180;-68
2021/05/08 04:49:15;;;;;;;8.40;6.25;;;8.20;99.90;;;;;;5115453;28;20234;-66
2021/05/08 04:51:41;;;;;;;8.95;6.00;;;8.30;99.90;;;;;;5097576;28;20179;-68
2021/05/08 04:54:06;;;;;;;9.00;6.10;;;8.40;99.90;;;;;;5115527;28;20196;-66
2021/05/08 04:56:32;;;;;;;10.23;5.97;;;8.40;99.90;;;;;;5115760;28;20180;-66
2021/05/08 04:58:58;;;;;;;7.73;6.43;;;8.50;99.90;;;;;;5115215;28;20223;-68
2021/05/08 05:01:23;;;;;;;8.13;5.90;;;8.50;99.90;;;;;;5097306;28;20179;-66
2021/05/08 05:03:49;;;;;;;8.83;6.27;;;8.50;99.90;;;;;;5115234;28;20184;-66
2021/05/08 05:06:14;;;;;;;8.50;6.10;;;8.60;99.90;;;;;;5115604;28;20190;-65
2021/05/08 05:08:40;;;;;;;7.70;5.67;;;8.70;99.90;;;;;;5096881;28;20283;-67
2021/05/08 05:11:05;;;;;;;8.20;6.30;;;8.60;99.90;;;;;;5097072;28;20180;-66
2021/05/08 05:13:31;;;;;;;11.23;6.77;;;8.60;99.90;;;;;;5115056;28;20550;-67
2021/05/08 05:15:57;;;;;;;15.17;5.60;;;8.70;99.90;;;;;;5096929;28;20183;-67
2021/05/08 05:18:22;;;;;;;8.40;5.80;;;8.80;99.90;;;;;;5114974;28;20211;-66
2021/05/08 05:20:48;;;;;;;9.07;6.20;;;8.70;99.90;;;;;;5115395;28;20561;-67
2021/05/08 05:23:14;;;;;;;7.30;5.50;;;8.90;99.90;;;;;;5114966;28;20195;-67
2021/05/08 05:25:39;;;;;;;8.33;6.00;;;8.90;99.90;;;;;;5115150;28;20187;-67
2021/05/08 05:28:20;;;;;;;6.47;4.80;;;9.00;99.90;;;;;;5114826;28;20436;-66
2021/05/08 05:30:45;;;;;;;7.10;5.80;;;9.00;99.90;;;;;;5096548;28;20183;-67
2021/05/08 05:33:11;;;;;;;6.57;5.30;;;9.10;99.90;;;;;;5114811;28;20725;-67
2021/05/08 05:35:36;;;;;;;6.23;4.93;;;9.20;99.90;;;;;;5114046;28;20172;-67
2021/05/08 05:38:02;;;;;;;7.13;5.70;;;9.30;99.90;;;;;;5114630;28;20264;-66
2021/05/08 05:40:27;;;;;;;8.47;5.90;;;9.30;99.90;;;;;;5096593;28;20183;-67
2021/05/08 05:42:53;;;;;;;8.00;5.73;;;9.40;99.90;;;;;;5114510;28;20196;-66
2021/05/08 05:45:19;;;;;;;6.20;5.60;;;9.50;99.90;;;;;;5096426;28;20190;-67
2021/05/08 05:47:45;;;;;;;6.60;5.47;;;9.60;99.90;;;;;;5114386;28;20204;-67
2021/05/08 05:50:11;;;;;;;7.03;5.35;;;9.70;99.90;;;;;;5114561;28;20196;-67
2021/05/08 05:52:36;;;;;;;8.97;6.20;;;9.80;99.90;;;;;;5114435;28;20223;-66
2021/05/08 05:55:03;;;;;;;11.97;6.00;;;9.90;99.90;;;;;;5114671;28;20192;-66
2021/05/08 05:57:28;;;;;;;9.52;6.38;;;10.00;99.90;;;;;;5114119;28;20231;-66
2021/05/08 05:59:54;;;;;;;6.60;5.70;;;10.10;99.90;;;;;;5114413;28;20172;-66
2021/05/08 06:02:19;;;;;;;6.47;5.27;;;10.20;99.90;;;;;;5114306;28;20172;-68
2021/05/08 06:04:45;;;;;;;6.30;5.20;;;10.20;99.90;;;;;;5114226;28;20192;-68
2021/05/08 06:07:10;;;;;;;6.50;4.90;;;10.40;99.90;;;;;;5096023;28;20176;-67
2021/05/08 06:09:36;;;;;;;6.67;5.73;;;10.40;99.90;;;;;;5114218;28;20188;-69
2021/05/08 06:12:01;;;;;;;6.87;5.77;;;10.50;99.90;;;;;;5114663;28;20175;-68
2021/05/08 06:14:27;;;;;;;6.73;5.17;;;10.50;99.90;;;;;;5114101;28;20192;-67
2021/05/08 06:17:46;;;;;;;6.70;5.97;;;10.50;99.90;;;;;;5114650;28;20184;-67
2021/05/08 06:20:12;;;;;;;6.97;5.45;;;10.70;99.90;;;;;;5114272;28;20267;-68
2021/05/08 06:22:37;;;;;;;6.30;5.70;;;10.90;99.90;;;;;;5114052;28;20229;-68
2021/05/08 06:25:03;;;;;;;7.77;5.00;;;10.90;99.90;;;;;;5114155;28;20179;-67
2021/05/08 06:30:44;;;;;;;7.78;6.30;;;11.00;99.90;;;;;;5172620;27;20509;-66
2021/05/08 06:33:09;;;;;;;7.38;5.32;;;11.10;99.90;;;;;;5165168;27;20205;-66
2021/05/08 06:35:35;;;;;;;7.23;5.83;;;11.20;99.90;;;;;;5153118;27;20171;-67
2021/05/08 06:38:01;;;;;;;7.10;5.67;;;11.20;99.90;;;;;;5152802;27;20247;-67
2021/05/08 06:40:28;;;;;;;5.80;5.20;;;11.40;99.90;;;;;;5153150;27;20174;-66
2021/05/08 06:42:54;;;;;;;5.95;5.07;;;11.40;99.90;;;;;;5133846;27;20217;-67
2021/05/08 06:45:19;;;;;;;5.90;5.20;;;11.40;99.90;;;;;;5152984;27;20170;-66
2021/05/08 06:47:46;;;;;;;5.77;4.97;;;11.50;99.90;;;;;;5133864;27;20251;-66
2021/05/08 06:50:12;;;;;;;5.75;4.90;;;11.50;99.90;;;;;;5152936;27;20735;-68
2021/05/08 06:52:38;;;;;;;6.00;5.40;;;11.60;99.90;;;;;;5152169;27;20243;-68
2021/05/08 06:55:04;;;;;;;6.20;5.13;;;11.70;99.90;;;;;;5152736;27;20547;-66
2021/05/08 06:57:30;;;;;;;7.13;5.90;;;11.90;99.90;;;;;;5152187;27;20186;-67
2021/05/08 06:59:56;;;;;;;10.90;5.87;;;12.00;99.90;;;;;;5152604;27;20414;-69
2021/05/08 07:02:21;;;;;;;6.50;5.70;;;12.00;99.90;;;;;;5152179;27;20402;-66
2021/05/08 07:04:47;;;;;;;5.27;4.73;;;12.10;99.90;;;;;;5133726;27;20262;-66
2021/05/08 07:07:12;;;;;;;6.63;6.00;;;12.20;99.90;;;;;;5152115;27;20219;-68
2021/05/08 07:09:39;;;;;;;6.47;5.87;;;12.30;99.90;;;;;;5133526;27;20207;-68
2021/05/08 07:12:05;;;;;;;6.43;5.80;;;12.40;99.90;;;;;;5152066;27;20198;-68
2021/05/08 07:14:30;;;;;;;8.53;6.30;;;12.50;99.90;;;;;;5152221;27;20446;-67
2021/05/08 07:16:56;;;;;;;6.77;5.20;;;12.70;99.90;;;;;;5151914;27;20447;-67
2021/05/08 07:19:22;;;;;;;5.67;5.13;;;12.70;99.90;;;;;;5152155;27;20674;-67
2021/05/08 07:21:47;;;;;;;5.63;5.07;;;12.90;99.90;;;;;;5133279;27;20294;-68
2021/05/08 07:24:13;;;;;;;5.97;5.37;;;12.90;99.90;;;;;;5151942;27;20273;-69
2021/05/08 07:26:38;;;;;;;6.67;6.03;;;13.00;99.90;;;;;;5151155;27;20648;-67
2021/05/08 07:29:04;;;;;;;6.20;5.47;;;12.90;99.90;;;;;;5149945;27;20707;-66
2021/05/08 07:31:29;;;;;;;5.90;5.30;;;13.10;99.90;;;;;;5151556;27;20627;-68
2021/05/08 07:33:55;;;;;;;6.40;5.80;;;13.20;99.90;;;;;;5133029;27;20544;-67
2021/05/08 07:36:20;;;;;;;5.07;4.67;;;13.30;99.90;;;;;;5151633;27;20213;-68
2021/05/08 07:38:46;;;;;;;5.80;5.30;;;13.20;99.90;;;;;;5151512;27;20202;-67
2021/05/08 07:41:13;;;;;;;6.50;5.90;;;13.30;99.90;;;;;;5142607;27;20160;-67
2021/05/08 07:43:38;;;;;;;6.90;5.10;;;13.40;99.90;;;;;;5137581;27;20244;-67
2021/05/08 07:46:04;;;;;;;7.33;6.67;;;13.50;99.90;;;;;;5137560;27;20806;-67
2021/05/08 07:48:30;;;;;;;6.90;6.20;;;13.50;99.90;;;;;;5137409;27;20191;-68
2021/05/08 07:50:55;;;;;;;6.00;5.50;;;13.50;99.90;;;;;;5137480;27;20170;-68
2021/05/08 07:53:21;;;;;;;8.47;7.60;;;13.50;99.90;;;;;;5137504;27;20604;-68
2021/05/08 07:55:47;;;;;;;7.17;6.47;;;13.60;99.90;;;;;;5118969;27;20171;-68
2021/05/08 07:58:13;;;;;;;8.20;6.70;;;13.90;99.90;;;;;;5118771;27;20195;-66
2021/05/08 08:00:38;;;;;;;6.57;5.90;;;13.80;99.90;;;;;;5137217;27;20408;-69
2021/05/08 08:03:04;;;;;;;6.13;5.60;;;13.60;99.90;;;;;;5137185;27;20191;-66
2021/05/08 08:05:30;;;;;;;7.37;6.47;;;13.70;99.90;;;;;;5137732;27;20497;-66
2021/05/08 08:07:56;;;;;;;7.03;6.33;;;13.70;99.90;;;;;;5137101;27;20423;-69
2021/05/08 08:10:22;;;;;;;8.63;6.13;;;13.50;99.90;;;;;;5137474;27;20342;-68
2021/05/08 08:12:47;;;;;;;9.67;7.23;;;13.40;99.90;;;;;;5137036;27;20524;-66
2021/05/08 08:15:14;;;;;;;7.27;6.50;;;13.50;99.90;;;;;;5137511;27;20418;-68
2021/05/08 08:17:40;;;;;;;8.37;6.97;;;13.70;99.90;;;;;;5136859;27;20298;-66
2021/05/08 08:20:08;;;;;;;7.50;6.67;;;13.50;99.90;;;;;;5137334;27;20550;-68
2021/05/08 08:22:33;;;;;;;7.37;6.57;;;13.60;99.90;;;;;;5136835;27;20191;-68
2021/05/08 08:24:59;;;;;;;8.40;6.63;;;13.50;99.90;;;;;;5137166;27;20438;-68
2021/05/08 08:27:25;;;;;;;7.27;6.00;;;13.60;99.90;;;;;;5136622;27;20167;-66
2021/05/08 08:29:51;;;;;;;7.80;6.03;;;13.80;99.90;;;;;;5136386;27;20261;-68
2021/05/08 08:32:17;;;;;;;8.30;7.00;;;14.00;99.90;;;;;;5117751;27;20402;-69
2021/05/08 08:34:42;;;;;;;8.10;7.30;;;14.20;99.90;;;;;;5136418;27;20423;-68
2021/05/08 08:37:11;;;;;;;7.53;6.77;;;14.20;99.90;;;;;;5136703;27;20255;-68
2021/05/08 08:39:37;;;;;;;8.17;6.63;;;14.30;99.90;;;;;;5117914;27;20271;-69
2021/05/08 08:42:04;;;;;;;8.17;6.77;;;14.30;99.90;;;;;;5118056;27;20407;-68
2021/05/08 08:44:30;;;;;;;7.47;6.50;;;14.30;99.90;;;;;;5136706;27;20652;-66
2021/05/08 08:46:55;;;;;;;6.80;6.17;;;14.40;99.90;;;;;;5117891;27;20498;-68
2021/05/08 08:49:22;;;;;;;9.57;6.20;;;14.60;99.90;;;;;;5136442;27;20566;-67
2021/05/08 08:51:48;;;;;;;7.53;6.73;;;14.50;99.90;;;;;;5135786;27;20644;-67
2021/05/08 08:54:13;;;;;;;6.60;6.00;;;14.40;99.90;;;;;;5117218;27;20461;-69
2021/05/08 08:56:45;;;;;;;7.13;6.43;;;14.60;99.90;;;;;;5136128;27;20190;-68
2021/05/08 08:59:27;;;;;;;6.83;6.10;;;14.60;99.90;;;;;;5117681;27;20336;-66
2021/05/08 09:01:53;;;;;;;7.70;6.70;;;14.80;99.90;;;;;;5136080;27;20415;-68
2021/05/08 09:04:19;;;;;;;8.20;7.43;;;14.70;99.90;;;;;;5136263;27;20474;-68
2021/05/08 09:06:47;;;;;;;6.90;6.20;;;14.80;99.90;;;;;;5136030;27;20418;-70
2021/05/08 09:09:14;;;;;;;8.07;5.80;;;14.70;99.90;;;;;;5135727;27;20222;-66
2021/05/08 09:11:47;;;;;;;7.07;5.73;;;14.80;99.90;;;;;;5135918;27;20399;-67
2021/05/08 09:14:19;;;;;;;5.57;5.07;;;15.20;99.90;;;;;;5135940;27;20455;-68
2021/05/08 09:17:02;;;;;;;9.07;6.03;;;15.40;99.90;;;;;;5117413;27;20415;-68
2021/05/08 09:19:28;;;;;;;6.50;5.50;;;15.50;99.20;;;;;;5135780;27;20470;-66
2021/05/08 09:21:54;;;;;;;6.80;6.07;;;15.60;99.90;;;;;;5135623;27;20406;-68
2021/05/08 09:24:20;;;;;;;6.63;5.70;;;15.50;98.30;;;;;;5117408;27;20434;-68
2021/05/08 09:26:49;;;;;;;5.20;4.70;;;15.50;99.90;;;;;;5135437;27;20399;-69
2021/05/08 09:29:19;;;;;;;6.40;5.80;;;15.30;97.60;;;;;;5135147;27;20234;-69
2021/05/08 09:31:57;;;;;;;8.60;5.07;;;15.10;97.40;;;;;;5135472;27;20395;-67
2021/05/08 09:34:23;;;;;;;4.73;4.33;;;15.10;97.50;;;;;;5135280;27;20442;-67
2021/05/08 09:36:54;;;;;;;5.90;5.20;;;15.10;97.20;;;;;;5135265;27;20536;-67
2021/05/08 09:39:34;;;;;;;6.20;5.17;;;15.10;97.70;;;;;;5135619;27;20499;-67
2021/05/08 09:42:00;;;;;;;5.70;5.20;;;15.10;97.70;;;;;;5116917;27;20921;-67
2021/05/08 09:44:25;;;;;;;5.90;5.40;;;15.00;99.20;;;;;;5135586;27;20530;-68
2021/05/08 09:46:52;;;;;;;7.57;6.80;;;14.80;98.00;;;;;;5135160;27;20476;-68
2021/05/08 09:49:20;;;;;;;5.60;5.00;;;14.90;97.40;;;;;;5135076;27;20255;-67
2021/05/08 09:51:56;;;;;;;6.20;4.90;;;15.20;97.40;;;;;;5135148;27;20399;-67
2021/05/08 09:54:22;;;;;;;5.40;4.80;;;15.10;98.10;;;;;;5135444;27;20806;-67
2021/05/08 09:56:49;;;;;;;5.73;5.10;;;15.30;98.50;;;;;;5134826;27;20510;-69
2021/05/08 09:59:36;;;;;;;5.93;5.33;;;15.40;97.60;;;;;;5135059;27;20191;-66
2021/05/08 10:02:02;;;;;;;4.50;4.10;;;15.00;96.80;;;;;;5135167;27;20758;-67
2021/05/08 10:04:32;;;;;;;4.93;4.50;;;15.20;97.20;;;;;;5134648;27;20443;-67
2021/05/08 10:07:08;;;;;;;5.60;4.90;;;15.30;96.90;;;;;;5134917;27;20163;-69
2021/05/08 10:09:34;;;;;;;4.53;3.83;;;15.60;96.20;;;;;;5134994;27;20549;-67
2021/05/08 10:12:02;;;;;;;5.40;4.90;;;15.40;95.50;;;;;;5116395;27;20405;-69
2021/05/08 10:14:30;;;;;;;5.10;4.60;;;15.30;96.00;;;;;;5116448;27;20451;-67
2021/05/08 10:16:57;;;;;;;5.57;4.63;;;15.50;94.30;;;;;;5134710;27;20391;-69
2021/05/08 10:19:23;;;;;;;4.60;4.20;;;15.60;96.10;;;;;;5134995;27;20492;-68
2021/05/08 10:21:49;;;;;;;3.87;3.57;;;16.00;95.90;;;;;;5134778;27;20523;-68
2021/05/08 10:24:16;;;;;;;5.87;3.90;;;16.10;94.70;;;;;;5134869;27;20471;-67
2021/05/08 10:26:43;;;;;;;4.60;4.20;;;16.10;94.90;;;;;;5134757;27;20437;-68
2021/05/08 10:29:09;;;;;;;4.67;4.27;;;16.00;93.50;;;;;;5134178;27;20487;-66
2021/05/08 10:31:35;;;;;;;4.63;4.23;;;15.90;94.40;;;;;;5134544;28;20407;-67
2021/05/08 10:34:01;;;;;;;4.60;4.20;;;16.10;93.80;;;;;;5116101;28;20443;-69
2021/05/08 10:36:48;;;;;;;3.90;3.50;;;16.00;94.10;;;;;;5134575;28;20244;-68
2021/05/08 10:39:14;;;;;;;4.30;3.90;;;16.00;96.00;;;;;;5134666;27;20426;-67
2021/05/08 10:41:50;;;;;;;5.07;3.87;;;16.20;94.80;;;;;;5134521;28;20399;-67
2021/05/08 10:44:44;;;;;;;5.07;4.67;;;16.40;95.40;;;;;;5116131;28;20450;-66
2021/05/08 10:47:14;;;;;;;4.13;3.70;;;16.20;93.90;;;;;;5134557;28;20412;-69
2021/05/08 10:49:40;;;;;;;4.13;3.73;;;16.30;93.50;;;;;;5116087;28;20510;-66
2021/05/08 10:52:06;;;;;;;5.13;3.50;;;16.00;92.50;;;;;;5134436;28;20391;-68
2021/05/08 10:54:42;;;;;;;3.27;2.80;;;16.30;94.90;;;;;;5134648;27;20514;-68
2021/05/08 10:57:28;;;;;;;3.67;3.37;;;16.40;94.70;;;;;;5134631;28;20291;-68
2021/05/08 11:00:02;;;;;;;3.13;2.93;;;16.40;92.30;;;;;;5134781;28;20506;-69
2021/05/08 11:02:40;;;;;;;3.43;3.13;;;16.40;90.80;;;;;;5134316;27;20439;-67
2021/05/08 11:05:23;;;;;;;3.17;2.87;;;16.40;91.50;;;;;;5134738;28;20430;-68
2021/05/08 11:07:49;;;;;;;4.57;3.07;;;16.40;92.10;;;;;;5134280;27;20427;-67
2021/05/08 11:10:33;;;;;;;3.50;2.93;;;17.00;90.50;;;;;;5134467;28;20967;-67
2021/05/08 11:13:12;;;;;;;3.40;3.03;;;16.70;91.10;;;;;;5134153;27;20924;-68
2021/05/08 11:15:58;;;;;;;3.50;3.20;;;16.70;90.10;;;;;;5134885;27;20410;-67
2021/05/08 11:18:33;;;;;;;3.60;3.07;;;16.50;90.40;;;;;;5138056;27;20446;-68
2021/05/08 11:21:08;;;;;;;3.20;2.80;;;16.30;90.00;;;;;;5138080;27;20434;-66
2021/05/08 11:24:08;;;;;;;2.67;2.47;;;16.60;89.00;;;;;;5137981;27;20442;-70
2021/05/08 11:26:44;;;;;;;3.33;3.03;;;16.40;88.00;;;;;;5138021;27;20420;-67
2021/05/08 11:29:11;;;;;;;3.07;2.77;;;16.60;90.90;;;;;;5137598;27;20933;-66
2021/05/08 11:31:56;;;;;;;3.13;2.53;;;16.40;89.80;;;;;;5119387;27;20407;-69
2021/05/08 11:34:29;;;;;;;3.40;3.10;;;16.70;89.90;;;;;;5138100;27;20499;-67
2021/05/08 11:36:56;;;;;;;6.07;5.57;;;15.80;86.10;;;;;;5137695;27;20868;-69
2021/05/08 11:39:26;;;;;;;3.30;3.00;;;16.30;90.40;;;;;;5138001;27;20932;-66
2021/05/08 11:41:54;;;;;;;4.70;2.53;;;16.30;90.50;;;;;;5137540;27;20399;-68
2021/05/08 11:44:32;;;;;;;2.90;2.60;;;16.40;90.20;;;;;;5137912;27;20462;-67
2021/05/08 11:47:04;;;;;;;2.70;2.50;;;16.60;88.80;;;;;;5119122;27;20423;-66
2021/05/08 11:49:35;;;;;;;2.53;2.33;;;16.80;86.00;;;;;;5137652;27;20497;-68
2021/05/08 11:52:06;;;;;;;2.57;2.37;;;17.00;83.20;;;;;;5137437;27;20403;-67
2021/05/08 11:54:42;;;;;;;3.33;3.03;;;17.10;83.80;;;;;;5137670;27;20499;-67
2021/05/08 11:57:21;;;;;;;3.40;3.10;;;17.00;86.00;;;;;;5118906;27;20427;-69
2021/05/08 11:59:47;;;;;;;3.37;3.07;;;17.20;84.90;;;;;;5137587;27;20410;-67
2021/05/08 12:02:15;;;;;;;3.70;3.33;;;17.20;86.00;;;;;;5137209;27;20811;-69
2021/05/08 12:04:48;;;;;;;2.77;2.57;;;17.30;86.40;;;;;;5137543;27;20228;-69
2021/05/08 12:07:16;;;;;;;2.53;2.33;;;17.50;83.50;;;;;;5137057;27;20399;-67
2021/05/08 12:09:42;;;;;;;3.37;2.53;;;17.60;82.80;;;;;;5137149;27;20470;-67
2021/05/08 12:12:08;;;;;;;2.80;2.60;;;17.70;83.10;;;;;;5137202;27;20426;-68
2021/05/08 12:14:42;;;;;;;2.63;2.43;;;18.00;81.90;;;;;;5118643;27;20767;-66
2021/05/08 12:17:09;;;;;;;3.47;3.00;;;18.10;80.10;;;;;;5137080;27;20383;-67
2021/05/08 12:19:37;;;;;;;3.50;3.20;;;18.50;82.90;;;;;;5118526;27;20439;-67
2021/05/08 12:22:04;;;;;;;3.10;2.60;;;18.20;82.70;;;;;;5118331;27;20416;-67
2021/05/08 12:24:30;;;;;;;3.17;2.70;;;18.00;82.50;;;;;;5136970;27;20436;-68
2021/05/08 12:26:55;;;;;;;3.53;3.23;;;18.00;82.40;;;;;;5136636;27;20878;-68
2021/05/08 12:29:21;;;;;;;4.10;3.70;;;18.00;82.50;;;;;;5117941;27;20484;-66
2021/05/08 12:31:47;;;;;;;3.90;3.47;;;17.90;83.90;;;;;;5118082;27;20181;-69
2021/05/08 12:34:18;;;;;;;5.23;3.97;;;17.70;82.00;;;;;;5136456;27;20191;-66
2021/05/08 12:37:04;;;;;;;3.23;2.97;;;17.30;83.70;;;;;;5118020;27;20416;-69
2021/05/08 12:39:30;;;;;;;4.13;3.77;;;17.30;80.90;;;;;;5136975;27;20462;-67
2021/05/08 12:42:01;;;;;;;4.50;3.53;;;17.60;83.20;;;;;;5118018;27;20855;-68
2021/05/08 12:44:35;;;;;;;3.27;2.93;;;17.50;82.50;;;;;;5136693;27;20438;-67
2021/05/08 12:47:18;;;;;;;4.70;3.70;;;17.20;81.40;;;;;;5136584;27;20387;-67
2021/05/08 12:50:01;;;;;;;4.73;3.40;;;17.70;83.20;;;;;;5117929;27;20494;-68
2021/05/08 12:52:27;;;;;;;3.83;3.20;;;18.10;79.30;;;;;;5136314;27;20410;-68
2021/05/08 12:54:53;;;;;;;4.00;2.70;;;18.30;79.60;;;;;;5136542;27;20409;-67
2021/05/08 12:57:18;;;;;;;3.60;3.30;;;18.70;81.50;;;;;;5136230;27;20544;-68